createdAt,value
2018-04-27T20:06:04.307Z,10.00
2018-04-27T20:09:21.782Z,10.00
2018-04-27T20:12:28.736Z,10.10
2018-04-27T20:20:51.996Z,10.40
2018-04-27T20:23:55.511Z,10.50
2018-04-27T20:27:14.150Z,10.60
2018-04-27T20:30:30.230Z,10.70
2018-04-27T20:33:41.121Z,10.70
2018-04-27T20:37:02.308Z,10.60
2018-04-27T20:42:50.500Z,10.60
2018-04-27T20:49:32.476Z,10.60
2018-04-27T20:54:41.250Z,10.50
2018-04-27T20:59:55.037Z,10.70
2018-04-27T21:04:59.471Z,11.40
2018-04-27T21:10:10.630Z,12.70
2018-04-27T21:15:16.714Z,13.40
2018-04-27T21:20:25.754Z,13.30
2018-04-27T21:25:47.413Z,12.40
2018-04-27T21:36:14.017Z,12.30
2018-04-27T21:47:23.698Z,12.90
2018-04-27T21:58:09.855Z,12.90
2018-04-27T22:03:15.583Z,12.80
2018-04-27T22:08:30.902Z,12.60
2018-04-27T22:19:18.739Z,12.40
2018-04-27T22:24:32.783Z,12.40
2018-04-27T22:29:41.927Z,12.40
2018-04-27T22:35:00.073Z,12.20
2018-04-27T22:46:04.083Z,11.80
2018-04-27T22:51:13.191Z,11.80
2018-04-27T23:02:20.421Z,12.00
2018-04-27T23:07:43.543Z,11.80
2018-04-27T23:12:51.563Z,11.70
2018-04-27T23:17:57.661Z,11.60
2018-04-27T23:23:07.836Z,12.00
2018-04-27T23:28:12.915Z,12.20
2018-04-27T23:33:18.072Z,11.90
2018-04-27T23:38:23.804Z,11.90
2018-04-27T23:48:43.065Z,11.30
2018-04-27T23:53:48.080Z,11.30
2018-04-27T23:59:01.885Z,11.20
